Time;durP1;ratioP1;P1;durP2;ratioP2;P2;SDS_P1;SDS_P2;PMS_P1;PMS_P2;Temp;Humidity;BMP_temperature;BMP_pressure;BME280_temperature;BME280_humidity;BME280_pressure;Samples;Min_cycle;Max_cycle;Signal;HPM_P1;HPM_P2
2021/10/15 00:01:52;;;;;;;7.30;6.50;;;5.70;99.90;;;;;;6182248;23;20391;-87
2021/10/15 00:04:19;;;;;;;8.50;6.20;;;5.60;99.90;;;;;;6178635;23;20419;-88
2021/10/15 00:06:57;;;;;;;10.30;6.50;;;5.70;99.90;;;;;;6157062;23;20409;-88
2021/10/15 00:09:23;;;;;;;9.10;6.93;;;5.70;99.90;;;;;;6206852;23;20382;-88
2021/10/15 00:11:48;;;;;;;7.20;6.50;;;5.70;99.90;;;;;;6182028;23;20459;-88
2021/10/15 00:14:22;;;;;;;9.30;6.87;;;5.80;99.90;;;;;;6181598;23;20160;-89
2021/10/15 00:16:49;;;;;;;7.07;6.13;;;5.70;99.90;;;;;;6156297;23;20172;-87
2021/10/15 00:19:15;;;;;;;7.00;6.40;;;5.60;99.90;;;;;;6209478;23;20431;-88
2021/10/15 00:21:48;;;;;;;7.57;5.97;;;5.60;99.90;;;;;;6181187;23;20401;-88
2021/10/15 00:24:13;;;;;;;7.60;6.87;;;5.50;99.90;;;;;;6182160;23;20505;-88
2021/10/15 00:26:39;;;;;;;7.40;6.67;;;5.50;99.90;;;;;;6181413;23;20431;-88
2021/10/15 00:29:08;;;;;;;6.70;6.00;;;5.50;99.90;;;;;;6182126;23;20202;-88
2021/10/15 00:31:34;;;;;;;7.77;7.00;;;5.50;99.90;;;;;;6181233;23;20250;-88
2021/10/15 00:33:59;;;;;;;8.03;6.63;;;5.30;99.90;;;;;;6182198;23;20806;-88
2021/10/15 00:36:25;;;;;;;7.53;6.83;;;5.30;99.90;;;;;;6181868;23;20212;-88
2021/10/15 00:38:51;;;;;;;7.50;6.80;;;5.50;99.90;;;;;;6181417;23;20230;-88
2021/10/15 00:41:18;;;;;;;7.40;6.30;;;5.40;99.90;;;;;;6182677;23;20167;-88
2021/10/15 00:44:02;;;;;;;9.40;6.63;;;5.30;99.90;;;;;;6182375;23;20178;-88
2021/10/15 00:46:28;;;;;;;7.60;6.90;;;5.30;99.90;;;;;;6181701;23;20395;-88
2021/10/15 00:48:54;;;;;;;7.97;7.17;;;5.40;99.90;;;;;;6181797;23;20398;-88
2021/10/15 00:51:20;;;;;;;7.73;7.13;;;5.30;99.90;;;;;;6181964;23;20792;-88
2021/10/15 00:53:48;;;;;;;8.77;6.87;;;5.30;99.90;;;;;;6181714;23;20274;-87
2021/10/15 00:56:17;;;;;;;8.80;7.60;;;5.20;99.90;;;;;;6181489;23;20409;-87
2021/10/15 01:04:31;;;;;;;9.97;7.17;;;5.30;99.90;;;;;;6207011;23;20418;-88
2021/10/15 01:07:05;;;;;;;8.33;7.47;;;5.30;99.90;;;;;;6181567;23;20485;-87
2021/10/15 01:09:32;;;;;;;7.83;7.10;;;5.30;99.90;;;;;;6180635;23;20482;-88
2021/10/15 01:12:03;;;;;;;8.70;7.50;;;5.30;99.90;;;;;;6181506;23;20406;-88
2021/10/15 01:14:30;;;;;;;7.80;7.10;;;5.20;99.90;;;;;;6182153;23;20464;-88
2021/10/15 01:17:00;;;;;;;8.40;7.27;;;5.20;99.90;;;;;;6181164;23;20809;-88
2021/10/15 01:19:26;;;;;;;8.47;7.57;;;5.30;99.90;;;;;;6181654;23;20442;-88
2021/10/15 01:21:53;;;;;;;10.03;6.93;;;5.30;99.90;;;;;;6182177;23;20469;-88
2021/10/15 01:24:19;;;;;;;7.27;6.57;;;5.30;99.90;;;;;;6184855;23;20166;-87
2021/10/15 01:26:45;;;;;;;8.47;7.63;;;5.30;99.90;;;;;;6191012;23;20868;-87
2021/10/15 01:29:11;;;;;;;7.83;6.60;;;5.20;99.90;;;;;;6181760;23;20171;-87
2021/10/15 01:31:51;;;;;;;8.03;7.23;;;5.10;99.90;;;;;;6207445;23;20426;-87
2021/10/15 01:34:40;;;;;;;8.80;7.90;;;5.10;99.90;;;;;;6181247;23;20439;-88
2021/10/15 01:37:10;;;;;;;9.57;7.30;;;5.00;99.90;;;;;;6180957;23;20456;-88
2021/10/15 01:39:36;;;;;;;8.33;7.53;;;5.00;99.90;;;;;;6180980;23;20409;-88
2021/10/15 01:42:02;;;;;;;9.77;8.10;;;5.10;99.90;;;;;;6181274;23;20398;-88
2021/10/15 01:44:29;;;;;;;15.33;8.60;;;5.00;99.90;;;;;;6180837;23;20198;-88
2021/10/15 01:46:54;;;;;;;10.27;7.57;;;5.10;99.90;;;;;;6181515;23;20172;-88
2021/10/15 01:49:21;;;;;;;10.30;7.70;;;5.00;99.90;;;;;;6178642;23;20395;-88
2021/10/15 01:51:47;;;;;;;8.67;7.67;;;5.00;99.90;;;;;;6181294;23;20173;-88
2021/10/15 01:54:45;;;;;;;10.97;7.67;;;5.00;99.90;;;;;;6179916;23;20439;-89
2021/10/15 01:57:10;;;;;;;8.97;7.03;;;5.00;99.90;;;;;;6180500;23;20414;-88
2021/10/15 01:59:36;;;;;;;9.00;7.47;;;5.10;99.90;;;;;;6181469;23;20493;-88
2021/10/15 02:02:02;;;;;;;8.40;7.50;;;5.10;99.90;;;;;;6180376;23;20163;-88
2021/10/15 02:04:28;;;;;;;9.50;6.77;;;5.10;99.90;;;;;;6205113;23;20263;-88
2021/10/15 02:07:17;;;;;;;8.37;7.50;;;5.10;99.90;;;;;;6181034;23;20235;-88
2021/10/15 02:10:08;;;;;;;8.40;7.50;;;5.00;99.90;;;;;;6204968;23;20401;-87
2021/10/15 02:12:39;;;;;;;8.53;7.63;;;5.00;99.90;;;;;;6180785;23;20551;-87
2021/10/15 02:15:11;;;;;;;10.20;7.87;;;5.00;99.90;;;;;;6207012;23;20832;-88
2021/10/15 02:20:12;;;;;;;9.23;7.63;;;5.00;99.90;;;;;;6206686;23;20394;-88
2021/10/15 02:22:40;;;;;;;10.00;7.57;;;4.90;99.90;;;;;;6181101;23;20402;-89
2021/10/15 02:25:07;;;;;;;9.73;7.67;;;4.90;99.90;;;;;;6207812;23;20381;-88
2021/10/15 02:27:34;;;;;;;8.30;7.40;;;4.90;99.90;;;;;;6181033;23;20424;-88
2021/10/15 02:29:59;;;;;;;7.73;6.93;;;4.90;99.90;;;;;;6178532;23;20489;-88
2021/10/15 02:32:25;;;;;;;8.00;7.20;;;4.90;99.90;;;;;;6180031;23;20430;-88
2021/10/15 02:34:51;;;;;;;10.43;7.00;;;5.00;99.90;;;;;;6180991;23;20160;-89
2021/10/15 02:37:17;;;;;;;7.83;7.13;;;4.90;99.90;;;;;;6180364;23;20268;-88
2021/10/15 02:39:42;;;;;;;6.60;6.10;;;4.90;99.90;;;;;;6180607;23;20168;-88
2021/10/15 02:42:10;;;;;;;6.87;6.20;;;4.90;99.90;;;;;;6181194;23;20158;-89
2021/10/15 02:44:39;;;;;;;7.83;7.03;;;5.00;99.90;;;;;;6179426;23;20168;-88
2021/10/15 02:47:04;;;;;;;9.63;7.30;;;4.90;99.90;;;;;;6180335;23;20413;-88
2021/10/15 02:49:33;;;;;;;8.17;6.67;;;4.80;99.90;;;;;;6181676;23;20392;-88
2021/10/15 02:52:31;;;;;;;8.00;7.20;;;4.70;99.90;;;;;;6180601;23;20402;-88
2021/10/15 02:55:00;;;;;;;9.73;7.40;;;4.70;99.90;;;;;;6185980;23;20456;-89
2021/10/15 02:57:27;;;;;;;7.77;6.60;;;4.70;99.90;;;;;;6208475;23;20456;-89
2021/10/15 02:59:59;;;;;;;8.33;6.93;;;4.60;99.90;;;;;;6207706;23;20198;-89
2021/10/15 03:02:27;;;;;;;8.37;7.27;;;4.60;99.90;;;;;;6178697;23;20722;-88
2021/10/15 03:04:55;;;;;;;8.70;7.07;;;4.70;99.90;;;;;;6179955;23;20526;-88
2021/10/15 03:07:30;;;;;;;8.30;7.50;;;4.60;99.90;;;;;;6180948;23;20409;-88
2021/10/15 03:12:55;;;;;;;7.30;6.70;;;4.70;99.90;;;;;;6207387;23;20402;-87
2021/10/15 03:15:22;;;;;;;10.57;7.17;;;4.60;99.90;;;;;;6180895;23;20396;-87
2021/10/15 03:20:22;;;;;;;7.47;6.70;;;4.50;99.90;;;;;;6207792;23;20465;-87
2021/10/15 03:22:48;;;;;;;8.60;6.90;;;4.60;99.90;;;;;;6181568;23;20395;-88
2021/10/15 03:25:14;;;;;;;7.67;6.93;;;4.60;99.90;;;;;;6180108;23;20496;-88
2021/10/15 03:27:40;;;;;;;7.40;6.60;;;4.50;99.90;;;;;;6179861;23;20170;-88
2021/10/15 03:30:10;;;;;;;8.33;7.10;;;4.60;99.90;;;;;;6180592;23;20413;-88
2021/10/15 03:32:42;;;;;;;7.17;6.40;;;4.50;99.90;;;;;;6180354;23;20564;-90
2021/10/15 03:35:13;;;;;;;8.67;7.43;;;4.50;99.90;;;;;;6207668;23;20396;-88
2021/10/15 03:37:38;;;;;;;10.23;8.33;;;4.50;99.90;;;;;;6180358;23;20446;-88
2021/10/15 03:40:05;;;;;;;8.13;6.70;;;4.60;99.90;;;;;;6180992;23;20404;-88
2021/10/15 03:42:31;;;;;;;7.47;6.77;;;4.60;99.90;;;;;;6180548;23;20180;-88
2021/10/15 03:44:58;;;;;;;6.83;6.23;;;4.50;99.90;;;;;;6180175;23;20400;-88
2021/10/15 03:47:24;;;;;;;8.90;7.57;;;4.40;99.90;;;;;;6176026;23;20401;-88
2021/10/15 03:50:00;;;;;;;7.20;6.50;;;4.30;99.90;;;;;;6180055;23;20413;-88
2021/10/15 03:52:26;;;;;;;7.30;6.37;;;4.30;99.90;;;;;;6178272;23;20171;-87
2021/10/15 03:54:54;;;;;;;7.03;6.33;;;4.30;99.90;;;;;;6204010;23;20477;-88
2021/10/15 03:57:42;;;;;;;7.40;6.60;;;4.30;99.90;;;;;;6204053;23;20961;-88
2021/10/15 04:00:56;;;;;;;8.03;6.70;;;4.30;99.90;;;;;;6206191;23;20902;-88
2021/10/15 04:03:23;;;;;;;9.33;6.90;;;4.20;99.90;;;;;;6204748;23;20427;-88
2021/10/15 04:05:49;;;;;;;7.93;7.00;;;4.20;99.90;;;;;;6202662;23;20391;-87
2021/10/15 04:08:14;;;;;;;7.60;6.70;;;4.20;99.90;;;;;;6179129;23;20471;-87
2021/10/15 04:10:48;;;;;;;7.97;6.00;;;4.20;99.90;;;;;;6207095;23;20232;-87
2021/10/15 04:13:17;;;;;;;6.90;6.20;;;4.20;99.90;;;;;;6193102;23;20389;-88
2021/10/15 04:16:03;;;;;;;7.37;6.67;;;4.20;99.90;;;;;;6180002;23;20449;-87
2021/10/15 04:18:30;;;;;;;8.80;6.83;;;4.20;99.90;;;;;;6205114;23;20936;-87
2021/10/15 04:20:55;;;;;;;6.73;5.90;;;4.10;99.90;;;;;;6179701;23;20408;-89
2021/10/15 04:23:21;;;;;;;7.63;6.40;;;3.90;99.90;;;;;;6206190;23;20582;-89
2021/10/15 04:25:55;;;;;;;8.60;6.73;;;4.00;99.90;;;;;;6200477;22;20160;-95
2021/10/15 04:28:20;;;;;;;8.00;6.97;;;4.10;99.90;;;;;;6189402;23;20471;-93
2021/10/15 04:30:50;;;;;;;7.80;6.60;;;4.00;99.90;;;;;;6182704;23;20409;-86
2021/10/15 04:33:16;;;;;;;7.30;6.40;;;4.00;99.90;;;;;;6180961;23;20246;-87
2021/10/15 04:35:42;;;;;;;6.60;6.00;;;4.00;99.90;;;;;;6179916;23;20425;-87
2021/10/15 04:38:08;;;;;;;10.60;7.03;;;4.00;99.90;;;;;;6181743;23;20207;-88
2021/10/15 04:40:36;;;;;;;8.60;6.13;;;3.90;99.90;;;;;;6182663;23;20386;-88
2021/10/15 04:43:02;;;;;;;6.63;5.90;;;3.90;99.90;;;;;;6183108;23;20715;-87
2021/10/15 04:45:28;;;;;;;7.83;6.80;;;3.90;99.90;;;;;;6182513;23;20419;-88
2021/10/15 04:47:54;;;;;;;7.20;6.50;;;3.90;99.90;;;;;;6182446;23;20406;-87
2021/10/15 04:50:19;;;;;;;7.23;6.53;;;4.00;99.90;;;;;;6182804;23;20171;-86
2021/10/15 04:52:45;;;;;;;7.40;6.70;;;4.00;99.90;;;;;;6182892;23;20704;-87
2021/10/15 04:55:11;;;;;;;10.23;9.20;;;4.00;99.90;;;;;;6182320;23;20398;-87
2021/10/15 04:57:36;;;;;;;11.33;10.20;;;3.90;99.90;;;;;;6182865;23;20196;-88
2021/10/15 05:00:07;;;;;;;8.47;6.63;;;3.90;99.90;;;;;;6182616;23;20160;-87
2021/10/15 05:02:36;;;;;;;7.50;6.73;;;3.80;99.90;;;;;;6182881;23;20735;-87
2021/10/15 05:05:02;;;;;;;9.10;7.03;;;3.80;99.90;;;;;;6181743;23;20489;-87
2021/10/15 05:07:28;;;;;;;8.73;6.73;;;3.70;99.90;;;;;;6182616;23;20430;-87
2021/10/15 05:09:54;;;;;;;7.67;6.87;;;3.80;99.90;;;;;;6183631;23;20519;-87
2021/10/15 05:12:20;;;;;;;8.70;6.80;;;3.80;99.90;;;;;;6182942;23;20399;-87
2021/10/15 05:14:46;;;;;;;7.13;6.43;;;3.70;99.90;;;;;;6182875;23;20187;-87
2021/10/15 05:17:12;;;;;;;8.43;6.70;;;3.70;99.90;;;;;;6183974;23;20505;-87
2021/10/15 05:19:40;;;;;;;8.30;6.30;;;3.70;99.90;;;;;;6182992;23;20442;-88
2021/10/15 05:22:06;;;;;;;8.27;7.03;;;3.60;99.90;;;;;;6182884;23;20173;-87
2021/10/15 05:24:32;;;;;;;8.80;6.90;;;3.80;99.90;;;;;;6181913;23;20729;-87
2021/10/15 05:26:58;;;;;;;8.87;7.63;;;3.80;99.90;;;;;;6209717;23;20443;-87
2021/10/15 05:29:24;;;;;;;10.83;6.83;;;3.80;99.90;;;;;;6183254;23;20423;-87
2021/10/15 05:31:50;;;;;;;10.67;7.60;;;3.80;99.90;;;;;;6183576;23;20721;-87
2021/10/15 05:34:16;;;;;;;9.67;7.13;;;3.80;99.90;;;;;;6182938;23;20394;-87
2021/10/15 05:36:41;;;;;;;7.80;6.83;;;3.80;99.90;;;;;;6182441;23;20178;-87
2021/10/15 05:39:07;;;;;;;7.40;6.30;;;3.90;99.90;;;;;;6182914;23;20195;-88
2021/10/15 05:41:33;;;;;;;7.60;6.83;;;3.80;99.90;;;;;;6183373;23;20251;-87
2021/10/15 05:43:58;;;;;;;7.80;6.27;;;3.80;99.90;;;;;;6183040;23;20166;-87
2021/10/15 05:46:24;;;;;;;7.07;6.37;;;3.80;99.90;;;;;;6183055;23;20464;-87
2021/10/15 05:48:50;;;;;;;7.27;6.47;;;3.90;99.90;;;;;;6182678;23;20169;-87
2021/10/15 05:51:18;;;;;;;7.40;6.67;;;3.80;99.90;;;;;;6182676;23;20164;-88
2021/10/15 05:53:45;;;;;;;7.90;6.93;;;3.80;99.90;;;;;;6186801;23;20171;-88
2021/10/15 05:59:03;;;;;;;10.13;7.10;;;3.80;99.90;;;;;;6207360;23;20437;-86
2021/10/15 06:01:29;;;;;;;9.80;8.00;;;3.90;99.90;;;;;;6181174;23;20399;-86
2021/10/15 06:14:50;;;;;;;8.97;7.80;;;4.10;99.90;;;;;;6207661;23;20388;-87
2021/10/15 06:17:17;;;;;;;7.53;6.63;;;4.10;99.90;;;;;;6180677;23;20404;-87
2021/10/15 06:19:59;;;;;;;7.80;7.00;;;4.20;99.90;;;;;;6181290;23;20618;-87
2021/10/15 06:22:29;;;;;;;9.00;7.83;;;4.30;99.90;;;;;;6209122;23;20463;-88
2021/10/15 06:24:56;;;;;;;10.30;7.10;;;4.40;99.90;;;;;;6181119;23;20392;-86
2021/10/15 06:27:25;;;;;;;10.07;8.10;;;4.40;99.90;;;;;;6180693;23;20401;-87
2021/10/15 06:29:54;;;;;;;8.50;7.10;;;4.50;99.90;;;;;;6180355;23;20441;-87
2021/10/15 06:32:22;;;;;;;9.97;6.30;;;4.60;99.90;;;;;;6208506;23;20435;-87
2021/10/15 06:34:49;;;;;;;8.13;6.60;;;4.70;99.90;;;;;;6180154;23;20401;-85
2021/10/15 06:37:17;;;;;;;8.50;6.47;;;4.70;99.90;;;;;;6181936;23;20868;-86
2021/10/15 06:39:43;;;;;;;7.63;6.93;;;4.70;99.90;;;;;;6180117;23;20395;-85
2021/10/15 06:42:09;;;;;;;8.07;7.00;;;4.60;99.90;;;;;;6181138;23;21078;-86
2021/10/15 06:44:35;;;;;;;9.30;6.93;;;4.50;99.90;;;;;;6180232;23;20399;-86
2021/10/15 06:47:00;;;;;;;7.77;6.50;;;4.50;99.90;;;;;;6180892;23;20535;-87
2021/10/15 06:49:26;;;;;;;7.47;6.47;;;4.60;99.90;;;;;;6180399;23;20924;-86
2021/10/15 06:51:51;;;;;;;7.63;5.97;;;4.60;99.90;;;;;;6180539;23;20167;-87
2021/10/15 06:54:17;;;;;;;8.90;7.30;;;4.70;99.90;;;;;;6180523;23;20336;-84
2021/10/15 06:56:43;;;;;;;12.23;7.33;;;4.60;99.90;;;;;;6180114;23;20416;-84
2021/10/15 06:59:09;;;;;;;7.10;6.37;;;4.60;99.90;;;;;;6181458;23;20196;-85
2021/10/15 07:01:35;;;;;;;7.87;6.77;;;4.60;99.90;;;;;;6181439;23;20160;-84
2021/10/15 07:04:01;;;;;;;9.53;7.87;;;4.60;99.90;;;;;;6180217;23;20285;-83
2021/10/15 07:06:27;;;;;;;11.20;8.80;;;4.50;99.90;;;;;;6180833;23;20800;-84
2021/10/15 07:08:53;;;;;;;8.13;7.27;;;4.60;99.90;;;;;;6181726;23;20401;-85
2021/10/15 07:11:24;;;;;;;8.23;6.90;;;4.70;99.90;;;;;;6207655;23;20457;-90
2021/10/15 07:13:50;;;;;;;8.90;6.77;;;4.70;99.90;;;;;;6182350;23;20404;-92
2021/10/15 07:16:16;;;;;;;8.30;7.40;;;4.80;99.90;;;;;;6181244;23;20400;-89
2021/10/15 07:18:42;;;;;;;8.97;6.60;;;4.80;99.90;;;;;;6182832;23;20242;-88
2021/10/15 07:21:09;;;;;;;9.10;7.27;;;5.00;99.90;;;;;;6206059;23;20824;-88
2021/10/15 07:23:36;;;;;;;9.70;8.10;;;5.10;99.90;;;;;;6184337;23;20408;-88
2021/10/15 07:26:13;;;;;;;8.67;7.43;;;5.30;99.90;;;;;;6219642;23;20455;-89
2021/10/15 07:28:39;;;;;;;7.90;6.23;;;5.50;99.90;;;;;;6181047;23;20795;-89
2021/10/15 07:31:04;;;;;;;6.90;6.20;;;5.50;99.90;;;;;;6181919;23;20429;-89
2021/10/15 07:33:30;;;;;;;8.40;6.73;;;5.50;99.90;;;;;;6182132;23;20241;-90
2021/10/15 07:35:56;;;;;;;7.67;6.90;;;5.50;99.90;;;;;;6181210;23;20216;-89
2021/10/15 07:38:22;;;;;;;6.53;5.83;;;5.80;99.90;;;;;;6180557;23;20195;-89
2021/10/15 07:40:47;;;;;;;7.33;6.50;;;6.10;99.90;;;;;;6181961;23;20174;-86
2021/10/15 07:43:13;;;;;;;6.73;6.03;;;6.20;99.90;;;;;;6182597;23;20166;-85
2021/10/15 07:45:39;;;;;;;8.03;7.00;;;6.30;99.90;;;;;;6181254;23;20166;-86
2021/10/15 07:48:06;;;;;;;7.43;6.70;;;6.20;99.90;;;;;;6182617;23;20933;-86
2021/10/15 07:50:32;;;;;;;9.23;6.37;;;6.20;99.90;;;;;;6182383;23;20171;-88
2021/10/15 07:52:57;;;;;;;9.03;7.00;;;6.30;99.90;;;;;;6181613;23;20399;-89
2021/10/15 07:55:23;;;;;;;7.40;6.80;;;6.50;99.90;;;;;;6155852;23;20222;-86
2021/10/15 07:57:49;;;;;;;7.93;6.47;;;6.70;99.90;;;;;;6182017;23;20243;-88
2021/10/15 08:00:16;;;;;;;7.63;6.60;;;6.90;99.90;;;;;;6181812;23;20159;-86
2021/10/15 08:02:42;;;;;;;8.27;7.33;;;7.00;99.90;;;;;;6180762;23;20423;-85
2021/10/15 08:05:11;;;;;;;7.40;6.70;;;7.10;99.90;;;;;;6180314;23;20410;-86
2021/10/15 08:07:37;;;;;;;7.73;6.93;;;7.20;99.90;;;;;;6181024;23;20163;-88
2021/10/15 08:10:03;;;;;;;7.47;6.87;;;7.50;99.90;;;;;;6180886;23;20847;-86
2021/10/15 08:12:29;;;;;;;7.30;6.60;;;7.80;99.90;;;;;;6181832;23;20628;-88
2021/10/15 08:14:55;;;;;;;7.50;6.70;;;8.10;99.90;;;;;;6207726;23;20469;-86
2021/10/15 08:17:20;;;;;;;8.27;7.13;;;8.40;99.90;;;;;;6183690;23;20186;-88
2021/10/15 08:19:46;;;;;;;8.00;7.30;;;8.70;99.90;;;;;;6183159;23;20164;-87
2021/10/15 08:22:12;;;;;;;8.10;7.03;;;8.80;99.90;;;;;;6184202;23;20508;-86
2021/10/15 08:24:38;;;;;;;8.10;7.20;;;8.80;99.90;;;;;;6182163;23;20241;-87
2021/10/15 08:27:04;;;;;;;8.80;7.20;;;8.80;99.90;;;;;;6183945;23;20163;-86
2021/10/15 08:29:45;;;;;;;10.23;7.67;;;8.90;99.90;;;;;;6185868;23;20166;-87
2021/10/15 08:32:11;;;;;;;9.40;8.40;;;9.00;99.90;;;;;;6191622;23;20626;-90
2021/10/15 08:34:37;;;;;;;8.80;7.60;;;9.20;99.90;;;;;;6192818;23;20387;-92
2021/10/15 08:37:05;;;;;;;8.90;7.37;;;9.30;99.90;;;;;;6186026;23;20162;-91
2021/10/15 08:39:30;;;;;;;8.70;6.90;;;9.30;99.90;;;;;;6183949;23;20191;-90
2021/10/15 08:41:59;;;;;;;8.67;7.10;;;9.40;99.90;;;;;;6184362;23;20422;-88
2021/10/15 08:44:42;;;;;;;8.07;7.27;;;9.70;99.90;;;;;;6184187;23;20167;-89
2021/10/15 08:47:08;;;;;;;7.60;6.90;;;10.00;99.90;;;;;;6182774;23;20473;-89
2021/10/15 08:49:34;;;;;;;7.80;7.10;;;10.30;99.90;;;;;;6183473;23;20453;-89
2021/10/15 08:52:23;;;;;;;10.63;6.40;;;10.40;99.90;;;;;;6182978;23;20413;-90
2021/10/15 08:57:23;;;;;;;8.20;7.13;;;10.90;99.90;;;;;;6215158;23;20481;-89
2021/10/15 08:59:50;;;;;;;7.90;6.90;;;10.90;99.90;;;;;;6180530;23;20914;-89
2021/10/15 09:02:25;;;;;;;8.20;7.40;;;11.00;99.90;;;;;;6209095;23;20163;-91
2021/10/15 09:05:06;;;;;;;10.87;7.70;;;11.20;99.90;;;;;;6180127;23;20398;-89
2021/10/15 09:07:31;;;;;;;9.50;7.10;;;11.30;99.90;;;;;;6183407;23;20391;-86
2021/10/15 09:10:19;;;;;;;8.13;7.33;;;11.40;99.90;;;;;;6182500;23;20402;-89
2021/10/15 09:12:47;;;;;;;7.13;6.43;;;11.50;99.90;;;;;;6183581;23;20155;-88
2021/10/15 09:15:14;;;;;;;8.07;7.27;;;11.70;99.90;;;;;;6182769;23;20413;-88
2021/10/15 09:18:03;;;;;;;8.93;7.00;;;11.50;99.90;;;;;;6182088;23;20496;-88
2021/10/15 09:20:31;;;;;;;9.20;6.50;;;11.60;99.90;;;;;;6182848;23;20476;-88
2021/10/15 09:22:57;;;;;;;8.43;7.33;;;12.10;99.90;;;;;;6183667;23;20449;-87
2021/10/15 09:25:35;;;;;;;8.73;7.10;;;12.20;99.90;;;;;;6182078;23;20395;-86
2021/10/15 09:28:13;;;;;;;5.90;5.40;;;12.30;99.90;;;;;;6182955;23;20504;-86
2021/10/15 09:30:41;;;;;;;7.10;6.50;;;12.80;99.90;;;;;;6182309;23;20915;-86
2021/10/15 09:33:07;;;;;;;6.90;6.30;;;13.00;99.90;;;;;;6183151;23;20452;-86
2021/10/15 09:35:33;;;;;;;7.27;6.57;;;13.00;99.90;;;;;;6182096;23;20712;-87
2021/10/15 09:38:10;;;;;;;6.47;5.87;;;13.00;99.90;;;;;;6181740;23;20465;-91
2021/10/15 09:40:46;;;;;;;29.90;27.10;;;13.20;99.90;;;;;;6184311;23;20462;-92
2021/10/15 09:43:18;;;;;;;7.80;7.10;;;13.30;99.90;;;;;;6181772;23;20548;-88
2021/10/15 09:45:49;;;;;;;6.77;6.17;;;13.40;99.90;;;;;;6181843;23;20401;-89
2021/10/15 09:48:36;;;;;;;7.13;6.33;;;13.80;99.90;;;;;;6181390;23;20160;-88
2021/10/15 09:51:15;;;;;;;6.67;6.10;;;13.60;99.90;;;;;;6182407;23;20460;-87
2021/10/15 09:54:01;;;;;;;6.47;5.93;;;13.50;99.90;;;;;;6182322;23;20461;-86
2021/10/15 09:56:54;;;;;;;7.23;6.07;;;13.50;99.90;;;;;;6181356;23;20398;-89
2021/10/15 09:59:20;;;;;;;7.40;6.70;;;13.60;99.90;;;;;;6182752;23;20474;-88
2021/10/15 10:01:57;;;;;;;6.70;6.07;;;13.80;99.90;;;;;;6206279;23;20409;-88
2021/10/15 10:04:23;;;;;;;7.10;6.30;;;13.80;99.90;;;;;;6208315;23;20398;-87
2021/10/15 10:06:50;;;;;;;9.63;6.10;;;13.90;99.90;;;;;;6182172;23;20387;-88
2021/10/15 10:09:17;;;;;;;5.60;5.20;;;13.90;99.90;;;;;;6181091;23;20167;-88
2021/10/15 10:11:42;;;;;;;6.50;5.97;;;14.20;99.90;;;;;;6181177;23;20393;-88
2021/10/15 10:14:12;;;;;;;7.00;6.20;;;14.30;99.90;;;;;;6174342;23;20395;-87
2021/10/15 10:16:40;;;;;;;7.43;5.67;;;14.30;99.50;;;;;;6181018;23;20242;-86
2021/10/15 10:19:11;;;;;;;6.83;6.10;;;14.50;99.90;;;;;;6180887;23;20516;-86
2021/10/15 10:21:38;;;;;;;6.20;5.70;;;15.00;99.40;;;;;;6179968;23;20395;-86
2021/10/15 10:24:26;;;;;;;5.70;5.10;;;15.50;97.70;;;;;;6186528;23;20486;-86
2021/10/15 10:26:55;;;;;;;6.00;5.50;;;15.40;98.00;;;;;;6186885;23;20406;-86
2021/10/15 10:29:25;;;;;;;5.80;5.30;;;15.80;97.70;;;;;;6181184;23;20395;-88
2021/10/15 10:31:53;;;;;;;5.40;4.90;;;16.10;97.00;;;;;;6207710;23;20399;-86
2021/10/15 10:34:25;;;;;;;5.07;4.63;;;16.50;95.80;;;;;;6181479;23;20717;-87
2021/10/15 10:37:09;;;;;;;5.50;5.00;;;16.10;95.40;;;;;;6179106;23;20649;-87
2021/10/15 10:39:36;;;;;;;5.50;5.03;;;16.40;95.60;;;;;;6179201;23;20452;-87
2021/10/15 10:42:33;;;;;;;5.07;4.67;;;16.40;95.50;;;;;;6181248;23;20391;-88
2021/10/15 10:44:58;;;;;;;5.17;4.77;;;16.70;94.60;;;;;;6178251;23;20912;-88
2021/10/15 10:47:25;;;;;;;4.93;4.53;;;16.80;95.30;;;;;;6180400;23;20395;-87
2021/10/15 10:50:05;;;;;;;4.03;3.73;;;17.10;95.40;;;;;;6206150;23;20164;-87
2021/10/15 10:52:51;;;;;;;4.00;3.70;;;17.30;93.10;;;;;;6180449;23;20387;-87
2021/10/15 10:55:46;;;;;;;4.07;3.77;;;17.00;93.30;;;;;;6180273;23;20399;-87
2021/10/15 10:58:36;;;;;;;3.50;2.93;;;16.70;93.60;;;;;;6181887;23;20453;-87
2021/10/15 11:01:30;;;;;;;2.57;2.40;;;17.10;93.60;;;;;;6181421;23;20715;-88
2021/10/15 11:03:57;;;;;;;4.57;4.20;;;17.30;93.60;;;;;;6179113;23;20505;-87
2021/10/15 11:06:23;;;;;;;3.33;3.10;;;17.20;93.80;;;;;;6179629;23;20788;-86
2021/10/15 11:08:48;;;;;;;2.80;2.37;;;17.10;94.30;;;;;;6178693;23;20457;-86
2021/10/15 11:11:23;;;;;;;2.83;2.63;;;16.60;94.80;;;;;;6181065;23;20391;-85
2021/10/15 11:13:49;;;;;;;3.20;2.90;;;16.70;92.80;;;;;;6181962;23;20194;-87
2021/10/15 11:16:23;;;;;;;3.30;2.70;;;17.00;94.70;;;;;;6181308;23;20386;-86
2021/10/15 11:18:49;;;;;;;3.90;3.20;;;17.50;94.50;;;;;;6181316;23;20438;-86
2021/10/15 11:21:14;;;;;;;3.50;3.20;;;17.90;93.20;;;;;;6181816;23;20406;-86
2021/10/15 11:23:42;;;;;;;3.77;3.47;;;18.30;92.70;;;;;;6180012;23;20229;-87
2021/10/15 11:26:11;;;;;;;4.30;3.30;;;18.60;92.30;;;;;;6210383;23;20217;-87
2021/10/15 11:28:37;;;;;;;4.33;3.10;;;18.50;92.80;;;;;;6155899;23;20406;-86
2021/10/15 11:31:11;;;;;;;3.80;3.50;;;18.70;92.00;;;;;;6180485;23;20164;-88
2021/10/15 11:33:39;;;;;;;4.00;3.70;;;18.90;92.20;;;;;;6180847;23;20166;-88
2021/10/15 11:36:06;;;;;;;4.70;4.00;;;18.20;92.50;;;;;;6180987;23;20393;-88
2021/10/15 11:38:39;;;;;;;6.23;4.10;;;18.30;92.90;;;;;;6203037;23;20985;-88
2021/10/15 11:41:06;;;;;;;5.50;3.77;;;18.50;94.30;;;;;;6180150;23;20433;-88
2021/10/15 11:43:34;;;;;;;4.57;4.17;;;18.70;93.60;;;;;;6181162;23;20163;-90
2021/10/15 11:46:09;;;;;;;4.20;3.90;;;18.50;94.40;;;;;;6180264;23;20426;-87
2021/10/15 11:48:46;;;;;;;5.40;4.57;;;18.40;94.20;;;;;;6181639;23;20753;-89
2021/10/15 11:51:26;;;;;;;4.30;3.60;;;18.40;93.70;;;;;;6184275;23;20406;-89
2021/10/15 11:54:00;;;;;;;3.93;3.63;;;18.70;93.50;;;;;;6186475;23;20405;-89
2021/10/15 11:56:34;;;;;;;4.40;3.90;;;19.10;93.10;;;;;;6196031;23;20383;-93
2021/10/15 11:59:08;;;;;;;5.27;3.90;;;19.30;92.40;;;;;;6184522;23;20437;-90
2021/10/15 12:01:36;;;;;;;6.37;3.93;;;18.90;92.30;;;;;;6186243;23;20398;-92
2021/10/15 12:04:10;;;;;;;4.10;3.80;;;19.00;93.90;;;;;;6184305;23;20480;-90
2021/10/15 12:06:43;;;;;;;4.60;4.30;;;18.90;93.30;;;;;;6185093;23;20410;-91
2021/10/15 12:09:12;;;;;;;4.40;4.00;;;18.90;93.60;;;;;;6183230;23;20415;-90
2021/10/15 12:11:38;;;;;;;6.80;4.40;;;18.20;93.20;;;;;;6183554;23;20387;-92
2021/10/15 12:14:23;;;;;;;4.00;3.70;;;18.20;94.20;;;;;;6184960;23;20534;-91
2021/10/15 12:17:09;;;;;;;4.83;4.33;;;18.30;94.40;;;;;;6185285;23;20394;-96
2021/10/15 12:19:40;;;;;;;4.50;4.10;;;18.60;95.50;;;;;;6183119;23;20885;-93
2021/10/15 12:22:16;;;;;;;4.70;4.30;;;19.20;93.00;;;;;;6184668;23;20462;-90
2021/10/15 12:24:50;;;;;;;4.70;4.20;;;19.30;93.20;;;;;;6183333;23;20499;-92
2021/10/15 12:27:40;;;;;;;4.90;4.50;;;19.80;91.30;;;;;;6182408;23;20417;-93
2021/10/15 12:30:20;;;;;;;7.37;4.20;;;19.50;91.20;;;;;;6182114;23;20405;-92
2021/10/15 12:32:46;;;;;;;8.03;7.07;;;19.90;92.60;;;;;;6180532;23;20394;-93
2021/10/15 12:35:14;;;;;;;5.40;4.90;;;19.90;92.20;;;;;;6210969;23;20385;-91
2021/10/15 12:37:51;;;;;;;5.17;4.77;;;20.40;92.30;;;;;;6182404;23;20525;-92
2021/10/15 12:40:25;;;;;;;5.90;5.40;;;21.10;91.20;;;;;;6208127;23;20445;-91
2021/10/15 12:43:05;;;;;;;6.00;5.50;;;20.30;90.60;;;;;;6182263;23;20809;-90
2021/10/15 12:46:07;;;;;;;6.13;5.63;;;20.80;91.00;;;;;;6182105;23;20942;-91
2021/10/15 12:48:33;;;;;;;5.80;4.90;;;21.60;88.40;;;;;;6182256;23;20407;-89
2021/10/15 12:51:09;;;;;;;6.47;5.27;;;21.70;88.20;;;;;;6208804;23;20383;-91
2021/10/15 12:53:50;;;;;;;5.83;4.70;;;21.40;87.80;;;;;;6179628;23;20391;-89
2021/10/15 12:56:18;;;;;;;5.40;4.90;;;20.80;87.00;;;;;;6207740;23;20419;-91
2021/10/15 12:58:53;;;;;;;5.50;5.00;;;20.20;88.40;;;;;;6180366;23;20442;-93
2021/10/15 13:01:37;;;;;;;8.23;7.13;;;19.30;91.10;;;;;;6182734;23;20869;-92
2021/10/15 13:04:03;;;;;;;6.30;5.70;;;18.90;91.70;;;;;;6209357;23;20441;-94
2021/10/15 13:06:33;;;;;;;4.43;4.13;;;18.60;91.90;;;;;;6184219;23;20394;-95
2021/10/15 13:08:59;;;;;;;7.27;6.00;;;18.80;92.40;;;;;;6185700;23;20507;-93
2021/10/15 13:11:26;;;;;;;5.57;5.07;;;19.10;91.70;;;;;;6185424;23;20835;-94
2021/10/15 13:14:06;;;;;;;5.90;5.30;;;19.00;92.00;;;;;;6185513;23;20399;-94
2021/10/15 13:16:34;;;;;;;7.70;6.10;;;18.80;92.00;;;;;;6185586;23;20446;-94
2021/10/15 13:19:00;;;;;;;6.90;6.20;;;18.40;91.90;;;;;;6184189;23;20525;-93
2021/10/15 13:21:25;;;;;;;7.60;5.67;;;17.80;92.60;;;;;;6184323;23;20437;-92
2021/10/15 13:24:06;;;;;;;7.13;5.53;;;17.80;93.80;;;;;;6187146;23;20167;-89
2021/10/15 13:26:32;;;;;;;7.20;6.50;;;17.40;93.80;;;;;;6217712;23;20414;-91
2021/10/15 13:28:58;;;;;;;8.33;6.77;;;17.00;93.60;;;;;;6182246;23;20398;-90
2021/10/15 13:31:23;;;;;;;7.07;6.10;;;16.80;94.60;;;;;;6176216;23;20171;-90
2021/10/15 13:33:49;;;;;;;13.27;5.43;;;16.90;94.40;;;;;;6181501;23;20200;-89
2021/10/15 13:36:38;;;;;;;6.03;5.27;;;17.10;94.20;;;;;;6179818;23;20159;-90
2021/10/15 13:39:05;;;;;;;7.37;4.87;;;16.80;94.40;;;;;;6182299;23;20200;-91